Time;durP1;ratioP1;P1;durP2;ratioP2;P2;SDS_P1;SDS_P2;PMS_P1;PMS_P2;Temp;Humidity;BMP_temperature;BMP_pressure;BME280_temperature;BME280_humidity;BME280_pressure;Samples;Min_cycle;Max_cycle;Signal;HPM_P1;HPM_P2
2021/12/16 00:09:38;;;;;;;0.60;0.60;;;3.70;99.90;;;;;;6207173;23;20206;-67
2021/12/16 00:29:32;;;;;;;2.40;1.30;;;3.80;99.90;;;;;;6208397;23;20198;-66
2021/12/16 00:32:18;;;;;;;1.30;1.20;;;3.70;99.90;;;;;;6208713;23;20211;-66
2021/12/16 00:34:50;;;;;;;0.80;0.80;;;3.70;99.90;;;;;;6207837;23;20704;-67
2021/12/16 00:37:21;;;;;;;0.80;0.80;;;3.80;99.90;;;;;;6209231;23;20193;-66
2021/12/16 00:39:52;;;;;;;1.20;1.10;;;3.80;99.90;;;;;;6202150;23;20525;-68
2021/12/16 00:42:35;;;;;;;1.30;1.20;;;3.80;99.90;;;;;;6207270;23;20188;-66
2021/12/16 00:48:03;;;;;;;1.73;1.13;;;3.90;99.90;;;;;;6168260;23;20308;-67
2021/12/16 00:56:15;;;;;;;0.85;0.85;;;3.70;99.90;;;;;;6211640;23;20182;-66
2021/12/16 00:58:52;;;;;;;1.98;1.00;;;3.70;99.90;;;;;;6208687;23;20193;-67
2021/12/16 01:01:36;;;;;;;0.75;0.75;;;3.70;99.90;;;;;;6209505;23;20182;-68
2021/12/16 01:07:19;;;;;;;1.27;1.17;;;3.70;99.90;;;;;;6208821;23;20201;-69
2021/12/16 01:35:18;;;;;;;2.17;1.92;;;3.70;99.90;;;;;;6207175;23;20503;-64
2021/12/16 01:41:43;;;;;;;4.63;1.35;;;3.70;99.90;;;;;;6208630;23;20181;-68
2021/12/16 01:47:17;;;;;;;1.50;1.40;;;3.80;99.90;;;;;;6205723;23;20201;-64
2021/12/16 01:49:58;;;;;;;1.75;1.65;;;3.90;99.90;;;;;;6202115;23;20201;-66
2021/12/16 01:55:24;;;;;;;1.58;1.50;;;3.90;99.90;;;;;;6205844;23;20190;-69
2021/12/16 01:57:58;;;;;;;1.70;1.52;;;3.80;99.90;;;;;;6209735;23;20200;-68
2021/12/16 02:00:43;;;;;;;1.75;1.63;;;3.90;99.90;;;;;;6206398;23;20207;-67
2021/12/16 02:03:24;;;;;;;2.13;2.00;;;4.00;99.90;;;;;;6206857;23;20182;-66
2021/12/16 02:06:05;;;;;;;1.90;1.80;;;4.00;99.90;;;;;;6208231;23;20658;-66
2021/12/16 02:08:39;;;;;;;2.10;1.90;;;4.00;99.90;;;;;;6208330;23;20208;-65
2021/12/16 02:11:24;;;;;;;1.52;1.42;;;4.00;99.90;;;;;;6208943;23;20182;-65
2021/12/16 02:28:18;;;;;;;2.03;1.30;;;3.90;99.90;;;;;;6208359;23;20182;-69
2021/12/16 02:36:37;;;;;;;6.05;2.25;;;3.90;99.90;;;;;;6201967;23;20189;-67
2021/12/16 02:39:13;;;;;;;2.05;1.95;;;3.90;99.90;;;;;;6208822;23;20192;-67
2021/12/16 02:41:47;;;;;;;3.90;2.67;;;3.90;99.90;;;;;;6208597;23;20181;-68
2021/12/16 02:44:29;;;;;;;1.58;1.30;;;3.90;99.90;;;;;;6206028;23;20281;-67
2021/12/16 02:49:54;;;;;;;2.15;1.70;;;3.80;99.90;;;;;;6207101;23;20212;-68
2021/12/16 02:52:27;;;;;;;1.92;1.83;;;3.80;99.90;;;;;;6211210;23;20508;-68
2021/12/16 02:55:00;;;;;;;1.70;1.60;;;3.80;99.90;;;;;;6208102;23;20595;-68
2021/12/16 02:57:34;;;;;;;1.90;1.80;;;3.80;99.90;;;;;;6210610;23;20182;-69
2021/12/16 03:00:11;;;;;;;57.17;11.70;;;3.90;99.90;;;;;;6204387;23;20177;-68
2021/12/16 03:02:43;;;;;;;1.88;1.77;;;3.90;99.90;;;;;;6209213;23;20232;-68
2021/12/16 03:05:14;;;;;;;2.20;2.10;;;3.90;99.90;;;;;;6207689;23;20208;-68
2021/12/16 03:07:44;;;;;;;2.92;2.20;;;3.90;99.90;;;;;;6208367;23;20185;-71
2021/12/16 03:13:11;;;;;;;2.20;2.00;;;3.90;99.90;;;;;;6168046;23;20273;-66
2021/12/16 03:15:59;;;;;;;2.28;2.10;;;3.90;99.90;;;;;;6212182;23;20200;-67
2021/12/16 03:18:38;;;;;;;2.55;2.35;;;3.80;99.90;;;;;;6207149;23;20286;-65
2021/12/16 03:21:17;;;;;;;1.98;1.75;;;3.90;99.90;;;;;;6210707;23;20188;-67
2021/12/16 03:24:10;;;;;;;1.77;1.67;;;3.90;99.90;;;;;;6210530;23;20212;-67
2021/12/16 03:32:39;;;;;;;2.65;2.20;;;3.90;99.90;;;;;;6212658;23;20181;-67
2021/12/16 03:35:28;;;;;;;2.15;1.80;;;4.00;99.90;;;;;;6206954;23;20197;-71
2021/12/16 03:38:02;;;;;;;2.42;2.22;;;4.00;99.90;;;;;;6207733;23;20182;-67
2021/12/16 03:40:34;;;;;;;2.08;1.88;;;4.00;99.90;;;;;;6207981;23;20185;-68
2021/12/16 03:43:08;;;;;;;1.90;1.80;;;4.00;99.90;;;;;;6210458;23;20197;-67
2021/12/16 03:48:36;;;;;;;2.47;2.28;;;4.00;99.90;;;;;;6204742;23;20582;-67
2021/12/16 03:51:09;;;;;;;1.70;1.60;;;4.10;99.90;;;;;;6208465;23;20208;-67
2021/12/16 03:53:42;;;;;;;2.20;2.10;;;4.00;99.90;;;;;;6208424;23;20190;-73
2021/12/16 03:56:13;;;;;;;1.65;1.55;;;4.00;99.90;;;;;;6208340;23;20186;-68
2021/12/16 03:58:45;;;;;;;1.90;1.60;;;4.00;99.90;;;;;;6206393;23;20182;-68
2021/12/16 04:01:20;;;;;;;2.05;1.95;;;3.90;99.90;;;;;;6209505;23;20233;-67
2021/12/16 04:03:51;;;;;;;1.65;1.55;;;3.90;99.90;;;;;;6207631;23;20182;-67
2021/12/16 04:06:24;;;;;;;3.45;1.95;;;3.90;99.90;;;;;;6209090;23;20209;-66
2021/12/16 04:08:56;;;;;;;2.00;1.83;;;3.90;99.90;;;;;;6206616;23;20214;-67
2021/12/16 04:11:32;;;;;;;13.60;5.00;;;4.00;99.90;;;;;;6207758;23;20622;-68
2021/12/16 04:14:04;;;;;;;1.55;1.45;;;4.00;99.90;;;;;;6211680;23;20182;-67
2021/12/16 04:16:38;;;;;;;1.40;1.30;;;4.00;99.90;;;;;;6207433;23;20188;-66
2021/12/16 04:19:12;;;;;;;1.60;1.50;;;3.90;99.90;;;;;;6208894;23;20242;-66
2021/12/16 04:21:46;;;;;;;1.95;1.85;;;4.00;99.90;;;;;;6207907;23;20181;-66
2021/12/16 04:24:16;;;;;;;2.45;1.48;;;4.10;99.90;;;;;;6209339;23;20192;-65
2021/12/16 04:26:49;;;;;;;3.13;1.80;;;4.10;99.90;;;;;;6208435;23;20263;-66
2021/12/16 04:29:22;;;;;;;1.65;1.55;;;4.10;99.90;;;;;;6208753;23;20192;-67
2021/12/16 04:31:55;;;;;;;1.90;1.80;;;4.10;99.90;;;;;;6209645;23;20193;-65
2021/12/16 04:34:26;;;;;;;2.10;1.60;;;4.10;99.90;;;;;;6208051;23;20190;-65
2021/12/16 04:36:57;;;;;;;1.95;1.50;;;4.10;99.90;;;;;;6207403;23;20239;-66
2021/12/16 04:39:30;;;;;;;2.28;2.17;;;4.10;99.90;;;;;;6209549;23;20262;-67
2021/12/16 04:42:02;;;;;;;2.10;2.00;;;4.20;99.90;;;;;;6209457;23;20197;-66
2021/12/16 04:44:35;;;;;;;2.65;2.42;;;4.30;99.90;;;;;;6211952;23;20188;-67
2021/12/16 04:47:10;;;;;;;807.83;145.05;;;4.40;99.90;;;;;;6209636;23;20186;-69
2021/12/16 04:49:44;;;;;;;3.28;3.00;;;4.40;99.90;;;;;;6201796;23;20198;-67
2021/12/16 04:52:18;;;;;;;3.05;2.78;;;4.50;99.90;;;;;;6208751;23;20182;-68
2021/12/16 04:54:49;;;;;;;2.08;1.90;;;4.40;99.90;;;;;;6201917;23;20198;-68
2021/12/16 04:57:20;;;;;;;1.98;1.88;;;4.40;99.90;;;;;;6209722;23;20185;-67
2021/12/16 04:59:53;;;;;;;3.05;1.65;;;4.30;99.90;;;;;;6206515;23;20189;-68
2021/12/16 05:02:25;;;;;;;1.40;1.30;;;4.30;99.90;;;;;;6210800;23;20476;-68
2021/12/16 05:05:02;;;;;;;1.35;1.30;;;4.20;99.90;;;;;;6198737;23;20193;-69
2021/12/16 05:07:33;;;;;;;1.50;1.40;;;4.20;99.90;;;;;;6210894;23;20186;-69
2021/12/16 05:10:17;;;;;;;1.77;1.67;;;4.10;99.90;;;;;;6208596;23;20205;-71
2021/12/16 05:12:59;;;;;;;1.80;1.70;;;4.10;99.90;;;;;;6210178;23;20182;-69
2021/12/16 05:15:36;;;;;;;1.45;1.40;;;4.00;99.90;;;;;;6207432;23;20188;-70
2021/12/16 05:18:10;;;;;;;2.13;1.55;;;4.00;99.90;;;;;;6206812;23;20673;-70
2021/12/16 05:20:44;;;;;;;2.45;1.55;;;4.00;99.90;;;;;;6211340;23;20177;-69
2021/12/16 05:26:31;;;;;;;1.70;1.60;;;4.00;99.90;;;;;;6211120;23;20684;-71
2021/12/16 05:29:20;;;;;;;1.60;1.50;;;4.00;99.90;;;;;;6202146;23;20541;-71
2021/12/16 05:31:57;;;;;;;1.48;1.48;;;4.00;99.90;;;;;;6205274;23;20201;-71
2021/12/16 05:34:34;;;;;;;1.15;1.15;;;4.00;99.90;;;;;;6210328;23;20187;-71
2021/12/16 05:37:08;;;;;;;1.65;1.55;;;4.00;99.90;;;;;;6208610;23;20190;-69
2021/12/16 05:39:40;;;;;;;1.77;1.58;;;4.00;99.90;;;;;;6208492;23;20185;-70
2021/12/16 05:42:12;;;;;;;1.67;1.45;;;4.00;99.90;;;;;;6206872;23;20190;-69
2021/12/16 05:44:45;;;;;;;2.42;1.60;;;4.00;99.90;;;;;;6208544;23;20182;-70
2021/12/16 05:47:20;;;;;;;1.45;1.30;;;4.00;99.90;;;;;;6210964;23;20250;-70
2021/12/16 05:49:51;;;;;;;1.85;1.55;;;4.00;99.90;;;;;;6207363;23;20197;-69
2021/12/16 05:52:23;;;;;;;2.22;2.03;;;4.10;99.90;;;;;;6208685;23;20212;-70
2021/12/16 05:54:58;;;;;;;1.70;1.60;;;4.10;99.90;;;;;;6208650;23;20659;-71
2021/12/16 05:57:31;;;;;;;2.10;2.00;;;4.10;99.90;;;;;;6210475;23;20210;-70
2021/12/16 06:00:02;;;;;;;2.42;2.25;;;4.20;99.90;;;;;;6206888;23;20186;-69
2021/12/16 06:02:35;;;;;;;2.30;2.08;;;4.20;99.90;;;;;;6208970;23;20204;-68
2021/12/16 06:05:06;;;;;;;2.17;1.80;;;4.20;99.90;;;;;;6207556;23;20201;-69
2021/12/16 06:07:37;;;;;;;2.00;1.77;;;4.20;99.90;;;;;;6204967;23;20181;-69
2021/12/16 06:10:18;;;;;;;2.30;2.20;;;4.20;99.90;;;;;;6208449;23;20261;-70
2021/12/16 06:12:49;;;;;;;2.25;2.05;;;4.20;99.90;;;;;;6206684;23;20646;-71
2021/12/16 06:15:34;;;;;;;2.13;2.03;;;4.20;99.90;;;;;;6210487;23;20646;-76
2021/12/16 06:26:43;;;;;;;2.10;1.90;;;4.30;99.90;;;;;;6210497;23;20610;-73
2021/12/16 06:29:14;;;;;;;2.45;2.25;;;4.30;99.90;;;;;;6208345;23;20185;-73
2021/12/16 06:31:45;;;;;;;2.28;2.08;;;4.40;99.90;;;;;;6208924;23;20513;-73
2021/12/16 06:34:24;;;;;;;2.47;2.28;;;4.40;99.90;;;;;;6208428;23;20189;-73
2021/12/16 06:36:58;;;;;;;2.47;2.28;;;4.40;99.90;;;;;;6209252;23;20257;-73
2021/12/16 06:39:31;;;;;;;2.22;2.03;;;4.30;99.90;;;;;;6208856;23;20186;-73
2021/12/16 06:42:05;;;;;;;1.85;1.75;;;4.10;99.90;;;;;;6210506;23;20526;-75
2021/12/16 06:44:41;;;;;;;1.70;1.60;;;4.10;99.90;;;;;;6209446;23;20187;-74
2021/12/16 06:47:17;;;;;;;1.65;1.55;;;4.10;99.90;;;;;;6209289;23;20499;-74
2021/12/16 06:49:52;;;;;;;1.73;1.40;;;4.10;99.90;;;;;;6208093;23;20181;-75
2021/12/16 06:52:29;;;;;;;1.65;1.55;;;3.90;99.90;;;;;;6209123;23;20716;-72
2021/12/16 06:55:09;;;;;;;2.65;2.45;;;3.90;99.90;;;;;;6206630;23;20181;-73
2021/12/16 06:57:44;;;;;;;2.00;1.90;;;4.00;99.90;;;;;;6208703;23;20205;-72
2021/12/16 07:00:27;;;;;;;2.70;2.30;;;4.00;99.90;;;;;;6206992;23;20188;-74
2021/12/16 07:03:00;;;;;;;1.63;1.52;;;4.00;99.90;;;;;;6210851;23;20335;-72
2021/12/16 07:05:35;;;;;;;1.98;1.88;;;3.90;99.90;;;;;;6207943;23;20206;-73
2021/12/16 07:08:07;;;;;;;2.40;2.30;;;3.90;99.90;;;;;;6208619;23;20181;-73
2021/12/16 07:10:39;;;;;;;1.83;1.73;;;4.00;99.90;;;;;;6207795;23;20196;-73
2021/12/16 07:13:17;;;;;;;2.00;1.90;;;4.00;99.90;;;;;;6208509;23;20190;-73
2021/12/16 07:15:50;;;;;;;1.92;1.83;;;4.00;99.90;;;;;;6210396;23;20166;-72
2021/12/16 07:18:21;;;;;;;1.90;1.80;;;3.90;99.90;;;;;;6207399;23;20182;-72
2021/12/16 07:20:53;;;;;;;2.00;1.90;;;3.90;99.90;;;;;;6207779;23;20193;-72
2021/12/16 07:23:24;;;;;;;1.90;1.80;;;4.00;99.90;;;;;;6208945;23;20186;-73
2021/12/16 07:25:56;;;;;;;1.98;1.70;;;3.90;99.90;;;;;;6210231;23;20181;-72
2021/12/16 07:28:27;;;;;;;2.65;2.45;;;4.00;99.90;;;;;;6208203;23;20204;-72
2021/12/16 07:30:59;;;;;;;1.98;1.85;;;3.90;99.90;;;;;;6208469;23;20257;-73
2021/12/16 07:33:30;;;;;;;2.00;1.90;;;4.00;99.90;;;;;;6207561;23;20466;-73
2021/12/16 07:36:02;;;;;;;1.83;1.73;;;4.00;99.90;;;;;;6208795;23;20185;-72
2021/12/16 07:38:34;;;;;;;2.05;1.80;;;4.00;99.90;;;;;;6206935;23;20194;-72
2021/12/16 07:41:05;;;;;;;1.77;1.67;;;4.00;99.90;;;;;;6210062;23;20205;-72
2021/12/16 07:43:55;;;;;;;2.03;1.92;;;4.00;99.90;;;;;;6206703;23;20192;-73
2021/12/16 07:46:31;;;;;;;2.50;2.30;;;4.00;99.90;;;;;;6210733;23;20746;-73
2021/12/16 07:49:02;;;;;;;3.58;3.30;;;4.00;99.90;;;;;;6205995;23;20182;-72
2021/12/16 07:51:35;;;;;;;1.80;1.70;;;4.00;99.90;;;;;;6208826;23;20225;-72
2021/12/16 07:54:09;;;;;;;2.33;2.13;;;4.00;99.90;;;;;;6208112;23;20192;-72
2021/12/16 07:56:40;;;;;;;2.17;1.92;;;4.00;99.90;;;;;;6212185;23;20265;-72
2021/12/16 07:59:11;;;;;;;2.38;2.20;;;4.00;99.90;;;;;;6208599;23;20517;-72
2021/12/16 08:01:43;;;;;;;3.58;2.42;;;4.00;99.90;;;;;;6211684;23;20189;-71
2021/12/16 08:04:20;;;;;;;2.00;1.90;;;4.00;99.90;;;;;;6209051;23;20572;-72
2021/12/16 08:06:54;;;;;;;2.22;2.03;;;4.00;99.90;;;;;;6210103;23;20490;-72
2021/12/16 08:09:25;;;;;;;2.25;2.15;;;4.00;99.90;;;;;;6206168;23;20317;-72
2021/12/16 08:12:00;;;;;;;1.75;1.65;;;4.00;99.90;;;;;;6209626;23;20662;-72
2021/12/16 08:14:30;;;;;;;2.33;2.22;;;4.00;99.90;;;;;;6211935;23;20186;-72
2021/12/16 08:17:01;;;;;;;2.28;2.17;;;4.00;99.90;;;;;;6210279;23;20243;-72
2021/12/16 08:19:36;;;;;;;2.55;2.35;;;4.10;99.90;;;;;;6207028;23;20182;-72
2021/12/16 08:22:10;;;;;;;2.47;2.35;;;4.10;99.90;;;;;;6211958;23;20193;-72
2021/12/16 08:24:41;;;;;;;2.17;2.08;;;4.10;99.90;;;;;;6209312;23;20260;-72
2021/12/16 08:27:13;;;;;;;2.30;2.20;;;4.00;99.90;;;;;;6208679;23;20504;-72
2021/12/16 08:29:44;;;;;;;2.30;2.10;;;4.00;99.90;;;;;;6209607;23;20182;-72
2021/12/16 08:32:15;;;;;;;2.10;2.00;;;4.00;99.90;;;;;;6210521;23;20489;-73
2021/12/16 08:34:46;;;;;;;2.55;2.35;;;4.00;99.90;;;;;;6208891;23;20186;-73
2021/12/16 08:37:24;;;;;;;2.47;2.28;;;4.00;99.90;;;;;;6209888;23;20281;-73
2021/12/16 08:39:55;;;;;;;2.60;2.42;;;4.00;99.90;;;;;;6207348;23;20185;-73
2021/12/16 08:42:26;;;;;;;2.50;2.35;;;4.10;99.90;;;;;;6210074;23;20508;-71
2021/12/16 08:44:57;;;;;;;2.72;2.53;;;4.20;99.90;;;;;;6209388;23;20307;-71
2021/12/16 08:47:29;;;;;;;2.40;2.20;;;4.20;99.90;;;;;;6211913;23;20650;-71
2021/12/16 08:50:00;;;;;;;2.92;2.72;;;4.20;99.90;;;;;;6208476;23;20193;-72
2021/12/16 08:52:32;;;;;;;2.70;2.47;;;4.10;99.90;;;;;;6211978;23;20201;-71
2021/12/16 08:55:04;;;;;;;2.50;2.30;;;4.10;99.90;;;;;;6207094;23;20186;-71
2021/12/16 08:57:35;;;;;;;2.70;2.50;;;4.10;99.90;;;;;;6210176;23;20337;-71
2021/12/16 09:00:11;;;;;;;2.50;2.30;;;4.10;99.90;;;;;;6209337;23;20189;-72
2021/12/16 09:02:42;;;;;;;3.00;2.70;;;4.10;99.90;;;;;;6211877;23;20283;-71
2021/12/16 09:05:13;;;;;;;3.08;2.88;;;4.20;99.90;;;;;;6206977;23;20205;-72
2021/12/16 09:07:48;;;;;;;3.03;2.25;;;4.20;99.90;;;;;;6211257;23;20189;-72
2021/12/16 09:10:23;;;;;;;2.38;2.20;;;4.10;99.90;;;;;;6207214;23;20181;-71
2021/12/16 09:13:02;;;;;;;2.38;2.20;;;4.10;99.90;;;;;;6210256;23;20540;-71
2021/12/16 09:15:35;;;;;;;3.88;2.00;;;4.20;99.90;;;;;;6209757;23;20186;-71
2021/12/16 09:18:10;;;;;;;2.45;1.48;;;4.10;99.90;;;;;;6211210;23;20182;-71
2021/12/16 09:20:41;;;;;;;2.40;2.28;;;4.20;99.90;;;;;;6211524;23;20181;-71
2021/12/16 09:23:14;;;;;;;2.35;2.05;;;4.20;99.90;;;;;;6207133;23;20193;-71
2021/12/16 09:25:48;;;;;;;2.70;2.50;;;4.20;99.90;;;;;;6209309;23;20237;-72
2021/12/16 09:28:21;;;;;;;3.40;3.10;;;4.30;99.90;;;;;;6211405;23;20241;-71
2021/12/16 09:30:52;;;;;;;2.72;2.33;;;4.30;99.90;;;;;;6209420;23;20479;-71
2021/12/16 09:33:25;;;;;;;2.90;2.70;;;4.30;99.90;;;;;;6210038;23;20198;-70
2021/12/16 09:36:00;;;;;;;3.08;2.78;;;4.40;99.90;;;;;;6207467;23;20268;-72
2021/12/16 09:38:32;;;;;;;3.00;2.80;;;4.30;99.90;;;;;;6207363;23;20616;-71
2021/12/16 09:41:06;;;;;;;2.78;2.60;;;4.30;99.90;;;;;;6207972;23;20573;-71
2021/12/16 09:43:40;;;;;;;3.03;2.83;;;4.30;99.90;;;;;;6210976;23;20233;-71
2021/12/16 09:46:14;;;;;;;2.80;2.60;;;4.30;99.90;;;;;;6209931;23;20186;-71
2021/12/16 09:48:46;;;;;;;2.60;2.40;;;4.30;99.90;;;;;;6205856;23;20203;-72
2021/12/16 09:51:22;;;;;;;2.92;2.50;;;4.30;99.90;;;;;;6210011;23;20188;-72
2021/12/16 09:53:59;;;;;;;2.10;2.00;;;4.30;99.90;;;;;;6208656;23;20343;-72
2021/12/16 09:56:31;;;;;;;2.40;2.30;;;4.30;99.90;;;;;;6209486;23;20537;-72
2021/12/16 09:59:07;;;;;;;2.85;2.65;;;4.30;99.90;;;;;;6208410;23;20240;-72
2021/12/16 10:01:38;;;;;;;2.65;2.45;;;4.30;99.90;;;;;;6208883;23;20249;-72
2021/12/16 10:04:15;;;;;;;3.00;2.80;;;4.40;99.90;;;;;;6210050;23;20178;-72
2021/12/16 10:06:46;;;;;;;2.45;2.13;;;4.40;99.90;;;;;;6208716;23;20233;-72
2021/12/16 10:09:19;;;;;;;3.05;2.85;;;4.40;99.90;;;;;;6209268;23;20222;-72
2021/12/16 10:11:52;;;;;;;2.80;2.60;;;4.40;99.90;;;;;;6209159;23;20519;-71
2021/12/16 10:14:44;;;;;;;2.92;2.72;;;4.30;99.90;;;;;;6210921;23;20202;-72
2021/12/16 10:17:26;;;;;;;3.13;2.83;;;4.30;99.90;;;;;;6201178;23;20194;-71
2021/12/16 10:19:58;;;;;;;2.95;2.75;;;4.40;99.90;;;;;;6207630;23;20256;-71
2021/12/16 10:22:34;;;;;;;2.38;2.25;;;4.40;99.90;;;;;;6209460;23;20182;-72
2021/12/16 10:25:25;;;;;;;2.30;2.20;;;4.50;99.90;;;;;;6208911;23;20189;-71
2021/12/16 10:28:16;;;;;;;2.45;2.25;;;4.40;99.90;;;;;;6210940;23;20186;-71
2021/12/16 10:30:52;;;;;;;2.80;2.60;;;4.40;99.90;;;;;;6209021;23;20189;-71
2021/12/16 10:33:27;;;;;;;2.92;2.70;;;4.50;99.90;;;;;;6209640;23;20202;-71
2021/12/16 10:36:09;;;;;;;2.90;2.60;;;4.50;99.90;;;;;;6208827;23;20181;-71
2021/12/16 10:38:42;;;;;;;2.92;2.72;;;4.40;99.90;;;;;;6206747;23;20181;-72
2021/12/16 10:41:20;;;;;;;2.90;2.70;;;4.40;99.90;;;;;;6209175;23;20204;-72
2021/12/16 10:43:55;;;;;;;2.90;2.60;;;4.40;99.90;;;;;;6206315;23;20177;-71
2021/12/16 10:46:29;;;;;;;2.70;2.50;;;4.40;99.90;;;;;;6209061;23;20186;-71
2021/12/16 10:49:02;;;;;;;2.42;2.25;;;4.50;99.90;;;;;;6205545;23;20200;-71
2021/12/16 10:51:34;;;;;;;2.03;1.92;;;4.40;99.90;;;;;;6211672;23;20186;-71
2021/12/16 10:54:21;;;;;;;2.72;2.53;;;4.40;99.90;;;;;;6208385;23;20201;-71
2021/12/16 10:56:59;;;;;;;3.15;2.85;;;4.50;99.90;;;;;;6208124;23;20182;-71
2021/12/16 10:59:34;;;;;;;4.30;2.83;;;4.50;99.90;;;;;;6206780;23;20207;-71
2021/12/16 11:02:11;;;;;;;3.20;2.95;;;4.50;99.90;;;;;;6211147;23;20530;-71
2021/12/16 11:04:49;;;;;;;3.60;3.30;;;4.50;99.90;;;;;;6207522;23;20517;-71
2021/12/16 11:07:26;;;;;;;2.70;2.50;;;4.50;99.90;;;;;;6180908;23;20198;-71
2021/12/16 11:10:00;;;;;;;3.10;2.90;;;4.50;99.90;;;;;;6178454;23;20182;-71
2021/12/16 11:12:43;;;;;;;2.90;2.70;;;4.50;99.90;;;;;;6179327;23;20196;-71
2021/12/16 11:15:19;;;;;;;2.78;2.58;;;4.50;99.90;;;;;;6178463;23;20185;-71
2021/12/16 11:17:52;;;;;;;3.47;2.85;;;4.50;99.90;;;;;;6181194;23;20186;-71
2021/12/16 11:20:28;;;;;;;2.60;2.50;;;4.40;99.90;;;;;;6175582;23;20182;-72
2021/12/16 11:23:01;;;;;;;2.53;2.33;;;4.50;99.90;;;;;;6178734;23;20189;-72
2021/12/16 11:25:35;;;;;;;2.85;2.65;;;4.50;99.90;;;;;;6181596;23;20179;-71
2021/12/16 11:28:19;;;;;;;3.13;2.92;;;4.50;99.90;;;;;;6180764;23;20186;-71
2021/12/16 11:30:53;;;;;;;2.58;2.40;;;4.60;99.90;;;;;;6176896;23;20264;-72
2021/12/16 11:33:32;;;;;;;3.08;2.88;;;4.60;99.90;;;;;;6177478;23;20239;-71
2021/12/16 11:36:11;;;;;;;2.30;2.20;;;4.60;99.90;;;;;;6178081;23;20182;-71
2021/12/16 11:38:45;;;;;;;2.65;2.45;;;4.50;99.90;;;;;;6178719;23;20193;-71
2021/12/16 11:41:27;;;;;;;2.95;2.75;;;4.50;99.90;;;;;;6181834;23;20181;-71
2021/12/16 11:44:17;;;;;;;2.40;2.20;;;4.50;99.90;;;;;;6180619;23;20665;-70
2021/12/16 11:46:51;;;;;;;2.90;2.70;;;4.60;99.90;;;;;;6180874;23;20204;-71
2021/12/16 11:49:25;;;;;;;3.38;3.15;;;4.60;99.90;;;;;;6177809;23;20186;-72
2021/12/16 11:52:00;;;;;;;2.97;2.78;;;4.50;99.90;;;;;;6180584;23;20224;-71
2021/12/16 11:54:34;;;;;;;2.70;2.50;;;4.60;99.90;;;;;;6180559;23;20202;-72
2021/12/16 11:57:12;;;;;;;2.80;2.60;;;4.60;99.90;;;;;;6182521;23;20209;-71
2021/12/16 11:59:48;;;;;;;2.97;2.67;;;4.50;99.90;;;;;;6178193;23;20183;-70
2021/12/16 12:02:27;;;;;;;3.40;3.10;;;4.50;99.90;;;;;;6180856;23;20189;-71
2021/12/16 12:05:17;;;;;;;2.55;2.40;;;4.50;99.90;;;;;;6180015;23;20217;-72
2021/12/16 12:07:51;;;;;;;3.50;3.25;;;4.50;99.90;;;;;;6182029;23;20190;-72
2021/12/16 12:10:36;;;;;;;3.17;2.97;;;4.50;99.90;;;;;;6180079;23;20209;-71
2021/12/16 12:13:08;;;;;;;3.00;2.80;;;4.50;99.90;;;;;;6182370;23;20182;-71
2021/12/16 12:15:57;;;;;;;2.97;2.78;;;4.60;99.90;;;;;;6180310;23;20193;-71
2021/12/16 12:18:38;;;;;;;3.55;2.85;;;4.50;99.90;;;;;;6179331;23;20186;-72
2021/12/16 12:21:31;;;;;;;2.88;2.67;;;4.50;99.90;;;;;;6180330;23;20497;-71
2021/12/16 12:24:06;;;;;;;3.03;2.83;;;4.60;99.90;;;;;;6179934;23;20302;-72
2021/12/16 12:26:39;;;;;;;2.97;2.78;;;4.60;99.90;;;;;;6180789;23;20186;-73
2021/12/16 12:29:15;;;;;;;3.30;3.00;;;4.60;99.90;;;;;;6181692;23;20182;-73
2021/12/16 12:31:50;;;;;;;3.42;3.22;;;4.70;99.90;;;;;;6180306;23;20507;-72
2021/12/16 12:34:23;;;;;;;2.70;2.58;;;4.70;99.90;;;;;;6166666;23;20208;-73
2021/12/16 12:36:57;;;;;;;3.25;3.05;;;4.60;99.90;;;;;;6178077;23;20231;-72
2021/12/16 12:39:31;;;;;;;3.08;2.78;;;4.70;99.90;;;;;;6179963;23;20622;-72
2021/12/16 12:42:02;;;;;;;3.33;3.03;;;4.70;99.90;;;;;;6180265;23;20190;-72
2021/12/16 12:44:33;;;;;;;3.72;3.35;;;4.60;99.90;;;;;;6180805;23;20583;-72
2021/12/16 12:47:08;;;;;;;2.85;2.65;;;4.60;99.90;;;;;;6179894;23;20186;-71
2021/12/16 12:49:39;;;;;;;4.45;3.15;;;4.60;99.90;;;;;;6179166;23;20182;-72
2021/12/16 12:52:12;;;;;;;3.42;3.22;;;4.60;99.90;;;;;;6179959;23;20510;-71
2021/12/16 12:54:45;;;;;;;3.10;2.90;;;4.70;99.90;;;;;;6181808;23;20230;-71
2021/12/16 12:57:25;;;;;;;4.18;3.30;;;4.70;99.90;;;;;;6179514;23;20661;-72
2021/12/16 12:59:56;;;;;;;3.75;3.45;;;4.70;99.90;;;;;;6177774;23;20571;-72
2021/12/16 13:02:36;;;;;;;3.67;3.38;;;4.60;99.90;;;;;;6181951;23;20265;-72
2021/12/16 13:05:13;;;;;;;4.10;3.30;;;4.60;99.90;;;;;;6180700;23;20519;-72
2021/12/16 13:07:47;;;;;;;3.10;2.90;;;4.60;99.90;;;;;;6209467;23;20652;-73
2021/12/16 13:10:24;;;;;;;3.33;3.03;;;4.60;99.90;;;;;;6209203;23;20190;-72
2021/12/16 13:13:17;;;;;;;3.35;3.05;;;4.60;99.90;;;;;;6211614;23;20186;-72
2021/12/16 13:15:55;;;;;;;3.63;3.22;;;4.60;99.90;;;;;;6209345;23;20661;-72
2021/12/16 13:24:33;;;;;;;3.47;3.28;;;4.70;99.90;;;;;;6209112;23;20204;-72
2021/12/16 13:27:13;;;;;;;3.55;3.35;;;4.70;99.90;;;;;;6207774;23;20190;-74
2021/12/16 13:30:06;;;;;;;3.75;3.45;;;4.70;99.90;;;;;;6209468;23;20186;-73
2021/12/16 13:32:44;;;;;;;3.45;3.25;;;4.70;99.90;;;;;;6212395;23;20182;-74
2021/12/16 13:35:33;;;;;;;3.05;2.85;;;4.70;99.90;;;;;;6209201;23;20483;-72
2021/12/16 13:38:10;;;;;;;3.15;2.95;;;4.60;99.90;;;;;;6209814;23;20182;-73
2021/12/16 13:40:44;;;;;;;3.70;3.40;;;4.70;99.90;;;;;;6205700;23;20203;-72
2021/12/16 13:43:25;;;;;;;3.42;2.80;;;4.70;99.90;;;;;;6209399;23;20276;-72
2021/12/16 13:46:24;;;;;;;3.92;3.63;;;4.70;99.90;;;;;;6209930;23;20249;-73
2021/12/16 13:58:10;;;;;;;3.65;3.25;;;4.80;99.90;;;;;;6206525;23;20988;-74
2021/12/16 14:04:13;;;;;;;2.92;2.72;;;4.60;99.90;;;;;;6209074;23;20192;-72
2021/12/16 14:06:56;;;;;;;4.57;4.22;;;4.70;99.90;;;;;;6211373;23;20212;-73
2021/12/16 14:09:35;;;;;;;3.28;3.08;;;4.70;99.90;;;;;;6210558;23;20586;-73
2021/12/16 14:15:19;;;;;;;3.90;3.60;;;4.70;99.90;;;;;;6179656;23;20563;-73
2021/12/16 14:18:07;;;;;;;4.00;3.60;;;4.70;99.90;;;;;;6210067;23;20281;-74
2021/12/16 14:24:07;;;;;;;4.30;3.90;;;4.70;99.90;;;;;;6209469;23;20265;-73
2021/12/16 14:26:51;;;;;;;4.50;3.78;;;4.80;99.90;;;;;;6208289;23;20318;-74
2021/12/16 14:35:11;;;;;;;3.25;3.05;;;4.90;99.90;;;;;;6208289;23;20201;-74
2021/12/16 14:38:01;;;;;;;3.90;3.60;;;4.80;99.90;;;;;;6211121;23;20182;-74
2021/12/16 14:41:02;;;;;;;5.45;3.78;;;4.70;99.90;;;;;;6207735;23;20182;-74
2021/12/16 14:43:41;;;;;;;3.83;3.58;;;4.70;99.90;;;;;;6209274;23;20654;-73
2021/12/16 14:46:11;;;;;;;5.20;4.70;;;4.70;99.90;;;;;;6207527;23;20177;-72
2021/12/16 14:48:44;;;;;;;4.00;3.70;;;4.80;99.90;;;;;;6206442;23;20190;-73
2021/12/16 14:51:21;;;;;;;3.25;3.05;;;4.80;99.90;;;;;;6209023;23;20192;-74
2021/12/16 14:53:53;;;;;;;3.97;3.67;;;4.80;99.90;;;;;;6209517;23;20264;-73
2021/12/16 14:57:00;;;;;;;3.65;3.45;;;4.70;99.90;;;;;;6208734;23;20197;-74
2021/12/16 15:00:23;;;;;;;3.17;2.97;;;4.70;99.90;;;;;;6205014;23;20189;-74
2021/12/16 15:03:03;;;;;;;4.72;4.32;;;4.80;99.90;;;;;;6205224;23;20496;-74
2021/12/16 15:08:45;;;;;;;4.72;4.32;;;4.80;99.90;;;;;;6204980;23;20189;-74
2021/12/16 15:11:31;;;;;;;4.68;4.28;;;4.80;99.90;;;;;;6207441;23;20268;-74
2021/12/16 15:14:20;;;;;;;4.10;3.80;;;4.80;99.90;;;;;;6192001;23;20229;-75
2021/12/16 15:17:03;;;;;;;4.60;4.28;;;4.80;99.90;;;;;;6207473;23;20221;-71
2021/12/16 15:37:34;;;;;;;4.03;3.63;;;4.80;99.90;;;;;;6183736;23;20249;-73
2021/12/16 15:43:33;;;;;;;5.00;4.50;;;4.90;99.90;;;;;;6208478;23;20256;-72
2021/12/16 15:46:06;;;;;;;4.20;3.90;;;4.80;99.90;;;;;;6211376;23;20174;-71
2021/12/16 15:48:37;;;;;;;5.07;4.68;;;4.70;99.90;;;;;;6206068;23;20196;-73
2021/12/16 15:51:13;;;;;;;792.97;131.20;;;4.70;99.90;;;;;;6200587;23;20228;-73
2021/12/16 15:53:49;;;;;;;19.23;7.65;;;4.80;99.90;;;;;;6203743;23;20668;-75
2021/12/16 15:56:25;;;;;;;7.55;5.30;;;5.00;99.90;;;;;;6202354;23;20673;-68
2021/12/16 15:58:59;;;;;;;393.88;68.13;;;4.80;99.90;;;;;;6205619;23;20203;-69
2021/12/16 16:01:33;;;;;;;5.20;4.80;;;4.80;99.90;;;;;;6202109;23;20189;-70
2021/12/16 16:04:07;;;;;;;5.00;4.60;;;4.90;99.90;;;;;;6205884;23;20200;-70
2021/12/16 16:06:42;;;;;;;122.82;26.95;;;4.90;99.90;;;;;;6205917;23;20208;-70
2021/12/16 16:09:15;;;;;;;5.18;4.68;;;4.90;99.90;;;;;;6202982;23;20186;-71
2021/12/16 16:11:50;;;;;;;5.20;4.45;;;4.80;99.90;;;;;;6205293;23;20637;-69
2021/12/16 16:14:26;;;;;;;1393.65;246.45;;;4.90;99.90;;;;;;6207401;23;20531;-70
2021/12/16 16:16:59;;;;;;;5.95;5.45;;;5.00;99.90;;;;;;6200792;23;20198;-71
2021/12/16 16:19:38;;;;;;;1233.75;214.10;;;5.10;99.90;;;;;;6203738;23;20222;-68
2021/12/16 16:22:11;;;;;;;347.85;67.50;;;5.30;99.90;;;;;;6205595;23;20182;-67
2021/12/16 16:24:47;;;;;;;6.55;5.95;;;5.20;99.90;;;;;;6212723;23;20220;-68
2021/12/16 16:27:20;;;;;;;8.63;6.40;;;5.10;99.90;;;;;;6204381;23;20181;-72
2021/12/16 16:29:53;;;;;;;1999.90;471.92;;;5.20;99.90;;;;;;6207335;23;20181;-69
2021/12/16 16:32:25;;;;;;;7.25;6.55;;;5.40;99.90;;;;;;6213163;23;20182;-72
2021/12/16 16:35:00;;;;;;;7.32;6.60;;;5.40;99.90;;;;;;6206128;23;20191;-72